Weather observations for the past three days for
Kerrville, Kerrville Municipal Airport/Louis Schreiner Field
Metric (Imperial)
Date Time (cdt) Wind (kph) Vis. (km) Weather Sky Cond. Temperature (ºC) Relative Humidity Wind Chill (°C) Heat Index (°C) Pressure Precipitation (cm)
Air Dwpt 6 hour altimeter (cm) sea level (mb) 1 hr 3 hr 6 hr
Max. Min.
06 06:15 Calm 16.09 Fair CLR 22.1 19.5 85% 76.07 0.0
06 05:55 Calm 16.09 Fair CLR 21.9 19.4 86% 76.05 0.0
06 05:35 Calm 16.09 Fair CLR 22.1 19.5 85% 76.07 0.0
06 05:15 Calm 16.09 Fair CLR 22.1 19.5 85% 76.05 0.0
06 04:55 Calm 16.09 Fair CLR 23.3 19.3 78% 76.07 0.0
06 04:35 Calm 16.09 Fair CLR 24 19.7 77% 25 76.07 0.0
06 04:15 Calm 16.09 Fair CLR 23.7 19.7 78% 76.07 0.0
06 03:55 SE 7 16.09 Fair CLR 24 19.6 77% 25 76.07 0.0
06 03:35 SE 7 16.09 Fair CLR 24.2 19.6 76% 25 76.07 0.0
06 03:15 SE 7 16.09 Fair CLR 24.8 19.5 72% 26 76.07 0.0
06 02:55 SE 9 16.09 Fair CLR 24.8 19.5 72% 26 76.12 0.0
06 02:35 SE 7 16.09 Fair CLR 25.2 19.4 70% 26 76.12 0.0
06 02:15 SE 6 16.09 Fair CLR 25.3 19.1 69% 26 76.15 0.0
06 01:55 SE 6 16.09 Fair CLR 26 19 65% 27 76.15 0.0
06 01:35 SE 6 16.09 Fair CLR 26 19.3 67% 27 76.15 0.0
06 01:15 SE 7 16.09 Fair CLR 26.5 19.8 67% 28 76.17 0.0
06 00:55 SE 7 16.09 Fair CLR 26.6 20 33.8 25 67% 28 76.15 0.0
06 00:35 SE 9 16.09 Fair CLR 27 20 66% 29 76.15 0.0
06 00:15 S 13 16.09 Fair CLR 27.3 19.9 64% 29 76.15 0.0
05 23:55 S 17 G 28 16.09 Partly Cloudy SCT080 27.7 19.7 62% 29 76.15 0.0
05 23:35 S 9 16.09 Mostly Cloudy BKN070 26.3 18.8 63% 27 76.15 0.0
05 23:15 Calm 16.09 Mostly Cloudy BKN070 26.2 18.4 62% 27 76.12 0.0
05 22:55 Calm 16.09 Partly Cloudy SCT070 25.5 18.4 65% 27 76.1 0.0
05 22:35 Calm 16.09 Partly Cloudy SCT070 26.9 18 58% 28 76.07 0.0
05 22:15 Calm 16.09 Fair CLR 27.6 18.1 56% 29 76.07 0.0
05 21:55 Calm 16.09 Fair CLR 27.8 18.1 56% 29 76.02 0.0
05 21:35 Calm 16.09 Fair CLR 28.5 18.1 53% 29 76.02 0.0
05 21:15 Calm 16.09 Fair CLR 28.6 18.1 53% 29 76 0.0
05 20:55 E 6 16.09 Fair CLR 29.9 18 49% 31 75.97 0.0
05 20:35 E 6 16.09 Fair CLR 30.4 18 47% 31 75.97 0.0
05 20:15 SE 6 16.09 Fair CLR 31 17.8 45% 32 75.95 0.0
05 19:55 SE 9 16.09 Fair CLR 31.8 17.8 43% 33 75.97 0.0
05 19:35 SE 15 16.09 Fair CLR 32.5 18.1 42% 33 75.95 0.0
05 19:15 SE 15 G 26 16.09 Partly Cloudy SCT065 SCT080 33.2 18.4 41% 34 75.95 0.0
05 18:55 SE 13 16.09 Mostly Cloudy SCT065 BKN080 33.8 17.7 35 31.5 38% 35 75.95 0.0
05 18:35 S 17 16.09 Partly Cloudy SCT065 34.1 17.6 37% 35 75.92 0.0
05 18:15 S 11 16.09 Partly Cloudy SCT065 33.3 17.7 39% 34 75.95 0.0
05 17:55 S 15 16.09 Fair CLR 33.9 18.2 39% 35 75.95 0.0
05 17:35 S 15 16.09 Fair CLR 33.5 19.2 43% 35 75.95 0.0
05 17:15 S 15 G 28 16.09 Fair CLR 32.6 19.9 47% 35 75.95 0.0
05 16:55 S 15 16.09 Fair CLR 33.2 18.7 42% 35 75.95 0.0
05 16:35 S 13 16.09 Fair CLR 32.8 19.7 46% 35 75.97 0.0
05 16:15 S 28 16.09 Fair CLR 32.6 19.8 47% 35 76 0.0
05 15:55 SE 19 16.09 Fair CLR 34.4 19.5 41% 37 76 0.0
05 15:35 SE 15 16.09 Partly Cloudy SCT060 SCT070 SCT110 33.6 19.2 43% 35 76.02 0.0
05 15:15 SE 19 16.09 Mostly Cloudy BKN060 BKN070 BKN100 35 19.5 40% 37 76.02 0.0
05 14:55 SE 13 16.09 Partly Cloudy SCT060 SCT070 33.7 18.4 40% 35 76.07 0.0
05 12:55 SE 17 16.09 Partly Cloudy SCT036 32.1 21.2 32.1 23 53% 35 76.23 0.0
05 12:35 E 9 16.09 Partly Cloudy SCT032 SCT090 31.5 21.6 56% 35 76.23 0.0
05 12:15 S 7 16.09 Mostly Cloudy SCT030 BKN090 29.6 21.7 63% 33 76.25 0.0
05 11:55 S 13 16.09 Mostly Cloudy BKN030 BKN090 30.2 21.3 59% 33 76.25 0.0
05 11:35 SE 7 16.09 Partly Cloudy SCT026 30 21.4 60% 33 76.25 0.0
05 11:15 S 9 16.09 Partly Cloudy SCT026 SCT090 29.3 21.6 63% 32 76.25 0.0
05 10:55 S 13 16.09 Overcast SCT020 OVC090 28.5 21.6 66% 31 76.25 0.0
05 10:35 S 13 16.09 Overcast BKN020 OVC080 27.8 22 71% 30 76.25 0.0
05 10:15 S 13 16.09 Overcast OVC016 27.9 22.1 71% 31 76.25 0.0
05 09:55 S 7 16.09 Overcast OVC014 27.6 22.6 74% 30 76.25 0.0
05 09:35 SE 9 16.09 Overcast OVC014 26.4 23 82% 29 76.25 0.0
05 09:15 SE 11 16.09 Overcast OVC014 25.5 22.6 84% 27 76.23 0.0
05 08:55 SE 6 16.09 Mostly Cloudy BKN012 BKN017 BKN080 24.7 22.6 88% 25 76.23 0.0
05 08:35 SE 6 16.09 Mostly Cloudy SCT010 BKN015 BKN023 23.8 22.4 92% 76.2 0.0
05 08:15 Calm 16.09 Mostly Cloudy BKN011 BKN015 BKN021 23.1 21.8 92% 76.2 0.0
05 07:55 Calm 16.09 Overcast OVC013 23.3 22.1 93% 76.17 0.0
05 07:35 E 6 16.09 Overcast OVC013 23.5 22.1 92% 76.15 0.0
05 07:15 SE 6 16.09 Overcast OVC013 23.5 22.1 92% 76.15 0.0
05 06:55 Calm 16.09 Overcast BKN012 OVC019 23.3 22 25.6 21.4 92% 76.15 0.0
05 06:35 Calm 16.09 Overcast BKN012 OVC021 22 20.6 92% 76.15 0.0
05 06:15 Calm 16.09 Overcast BKN012 OVC019 22.3 21 92% 76.15 0.0
05 05:55 Calm 16.09 Mostly Cloudy BKN012 21.6 20.2 92% 76.15 0.0
05 05:35 Calm 16.09 Partly Cloudy SCT012 21.5 20 91% 76.15 0.0
05 05:15 Calm 16.09 Partly Cloudy SCT012 22 20.3 90% 76.12 0.0
05 04:55 E 6 16.09 Partly Cloudy SCT014 23 20.8 87% 76.12 0.0
05 04:35 E 6 16.09 Mostly Cloudy BKN014 22.6 20.2 86% 76.12 0.0
05 04:15 Calm 16.09 Partly Cloudy SCT014 22.8 20.1 85% 76.12 0.0
05 03:55 Calm 16.09 Fair CLR 23.5 20.3 82% 76.12 0.0
05 03:35 E 7 16.09 Fair CLR 23.6 20.5 83% 76.12 0.0
05 03:15 SE 9 16.09 Fair CLR 23.8 20.5 82% 76.15 0.0
05 02:55 SE 7 16.09 Fair CLR 23.6 20.1 81% 76.15 0.0
05 02:35 SE 6 16.09 Fair CLR 23.2 19.6 80% 76.15 0.0
05 02:15 SE 9 16.09 Fair CLR 24.5 20 76% 25 76.15 0.0
05 01:55 SE 7 16.09 Fair CLR 24 19.9 78% 24 76.15 0.0
05 01:35 SE 6 16.09 Fair CLR 24.8 19.9 74% 26 76.17 0.0
05 01:15 SE 7 16.09 Fair CLR 25.3 19.9 72% 26 76.17 0.0
05 00:55 SE 9 16.09 Fair CLR 25.5 20 30 25 72% 27 76.15 0.0
05 00:35 E 9 16.09 Fair CLR 25.5 20 72% 27 76.17 0.0
05 00:15 E 9 16.09 Fair CLR 25.5 20.1 72% 27 76.17 0.0
04 23:55 E 9 16.09 Fair CLR 25.8 20.1 71% 27 76.17 0.0
04 23:35 E 9 16.09 Fair CLR 25.5 20.1 72% 27 76.17 0.0
04 23:15 SE 7 16.09 Fair CLR 25.4 20 72% 26 76.17 0.0
04 22:55 SE 7 16.09 Fair CLR 25 20.3 75% 26 76.17 0.0
04 22:35 Calm 16.09 Fair CLR 25.2 21 78% 26 76.17 0.0
04 22:15 Calm 16.09 Fair CLR 25.3 20.9 77% 26 76.15 0.0
04 21:55 Calm 16.09 Fair CLR 26.2 20.1 69% 28 76.1 0.0
04 21:35 E 6 16.09 Fair CLR 26.5 20.1 68% 28 76.07 0.0
04 21:15 Calm 16.09 Light Rain SCT046 SCT070 SCT120 26.5 21.3 73% 28 76.07 0.0
04 20:55 Calm 16.09 Light Rain SCT070 SCT085 SCT110 26.8 21.3 72% 29 76.07 0.0
04 20:35 Calm 16.09 Light Rain SCT080 SCT100 BKN120 28 20.4 63% 30 76.07 0.0
04 20:15 Calm 16.09 Fair CLR 28.6 20.1 60% 30 76.07 0.0
04 19:55 Calm 16.09 Fair CLR 29 19.8 58% 31 76.07 0.0
04 19:35 SE 6 16.09 Fair CLR 29 20.2 59% 31 76.07 0.0
04 19:15 SE 9 16.09 Fair CLR 29.3 19.9 57% 31 76.07 0.0
04 18:55 SE 9 16.09 Fair CLR 30 20 31.8 29.1 55% 32 76.05 0.0
04 18:35 S 9 16.09 Fair CLR 30.4 18 47% 31 76.02 0.0
04 18:15 SE 17 16.09 Fair CLR 30.5 19 50% 32 76.02 0.0
04 17:55 S 17 16.09 Fair CLR 30.8 20.3 54% 33 76.02 0.0
04 17:35 SE 9 16.09 Fair CLR 30.7 20.9 56% 33 76.05 0.0
04 17:15 SE 15 16.09 Fair CLR 31 21.4 57% 34 76.05 0.0
04 16:55 S 13 16.09 Partly Cloudy SCT075 SCT090 30 21.1 59% 33 76.07 0.0
04 16:35 SE 15 16.09 Light Drizzle SCT046 SCT055 BKN070 29.5 19.9 56% 31 76.07 0.0
04 16:15 SE 13 16.09 Partly Cloudy SCT048 SCT060 SCT110 29.7 20.7 58% 32 76.12 0.0
04 15:55 SE 13 16.09 Mostly Cloudy BKN110 30.7 21.1 57% 33 76.15 0.0
04 15:35 SE 11 16.09 Mostly Cloudy BKN110 30 21.2 59% 33 76.15 0.0
04 15:15 SE 11 16.09 Partly Cloudy SCT110 30.3 21.3 59% 33 76.15 0.0
04 14:55 SE 17 16.09 Light Rain SCT028 SCT046 SCT055 29.5 21 60% 32 76.17 0.0
04 14:35 SE 17 16.09 Light Rain SCT026 SCT050 BKN070 29.1 21.6 64% 32 76.2 0.0
04 14:15 SE 11 16.09 Partly Cloudy SCT070 SCT090 SCT110 29.5 20.6 59% 32 76.17 0.0
04 13:55 SE 13 16.09 Partly Cloudy SCT120 29.7 20.7 58% 32 76.2 0.0
04 13:35 S 15 16.09 Partly Cloudy SCT100 SCT120 29.8 20.6 58% 32 76.2 0.0
04 13:15 SE 13 16.09 Partly Cloudy SCT100 SCT120 29.7 20.8 59% 32 76.2 0.0
04 12:55 S 13 16.09 Fair CLR 29.5 21 30.9 23.6 60% 32 76.23 0.0
04 12:35 SE 17 16.09 Partly Cloudy SCT034 SCT120 29.7 20.8 59% 32 76.23 0.0
04 12:15 SE 13 16.09 Partly Cloudy SCT031 SCT120 30.5 20.8 56% 33 76.25 0.0
04 11:55 SE 13 16.09 Mostly Cloudy BKN029 29.8 20.9 59% 32 76.25 0.0
04 11:35 S 11 16.09 Mostly Cloudy BKN027 28.7 21.3 64% 31 76.25 0.0
04 11:15 SE 13 16.09 Mostly Cloudy BKN023 BKN028 27.8 21.6 69% 30 76.25 0.0
04 10:55 S 19 16.09 Light Drizzle SCT018 SCT034 BKN055 27.3 21.8 72% 30 76.25 0.0
04 10:35 SE 19 16.09 Light Rain SCT021 SCT065 BKN100 26.6 22 76% 29 76.23 0.0
04 10:15 SE 19 16.09 Mostly Cloudy BKN015 BKN110 26.1 22.2 79% 28 76.25 0.0
04 09:55 SE 15 16.09 Mostly Cloudy BKN013 BKN026 BKN120 25.7 22.5 83% 27 76.25 0.0
04 09:35 SE 15 16.09 Overcast BKN011 BKN017 OVC110 25.3 22.5 85% 26 76.23 0.0
04 09:15 SE 15 16.09 Overcast SCT011 OVC022 25 22.5 86% 26 76.23 0.0
04 08:55 SE 13 16.09 Overcast BKN011 OVC022 24.6 22.5 88% 25 76.2 0.0
04 08:35 SE 11 16.09 Overcast BKN011 OVC022 24.4 22.4 89% 24 76.17 0.0
04 08:15 SE 11 16.09 Overcast SCT014 OVC020 24.1 22.3 90% 24 76.15 0.0
04 07:55 SE 11 16.09 Overcast OVC020 23.9 22.1 90% 23 76.15 0.0
04 07:35 SE 13 16.09 Partly Cloudy SCT016 23.6 22 91% 76.1 0.0
04 07:15 SE 7 16.09 Partly Cloudy SCT110 23.8 22 90% 76.1 0.0
04 06:55 SE 7 16.09 Mostly Cloudy BKN110 23.7 22 26.8 23.5 90% 76.1 0.0
04 06:35 S 7 16.09 Fair CLR 23.6 21.7 89% 76.1 0.0
04 06:15 SE 7 16.09 Partly Cloudy SCT016 SCT020 23.9 21.8 88% 24 76.1 0.0
04 05:55 S 9 16.09 Mostly Cloudy SCT016 BKN021 24.1 22 88% 24 76.1 0.0
04 05:35 SE 13 16.09 Partly Cloudy SCT018 24.1 22 88% 24 76.1 0.0
04 05:15 S 15 16.09 Partly Cloudy SCT015 SCT020 SCT120 24.3 22 87% 24 76.1 0.0
04 04:55 S 13 16.09 Mostly Cloudy BKN015 BKN020 24.5 22 86% 25 76.07 0.0
04 04:35 S 11 16.09 Overcast OVC017 24.6 22 86% 25 76.1 0.0
04 04:15 S 13 16.09 Overcast OVC015 24.8 22 84% 25 76.1 0.0
04 03:55 S 11 16.09 Mostly Cloudy BKN015 24.7 21.8 84% 25 76.07 0.0
04 03:35 SE 9 16.09 Partly Cloudy SCT017 24.6 21.6 83% 25 76.1 0.0
04 03:15 SE 13 16.09 Mostly Cloudy BKN017 24.9 21.6 82% 26 76.1 0.0
04 02:55 S 17 16.09 Partly Cloudy SCT019 25.1 21.6 81% 26 76.12 0.0
04 02:35 SE 9 16.09 Partly Cloudy SCT019 25.3 21.7 81% 26 76.15 0.0
04 02:15 S 15 16.09 Mostly Cloudy BKN021 25.5 21.7 80% 27 76.12 0.0
04 01:55 SE 22 16.09 Partly Cloudy SCT021 25.8 21.7 78% 27 76.12 0.0
04 01:35 SE 22 G 30 16.09 Partly Cloudy SCT023 26.1 21.5 76% 28 76.15 0.0
04 01:15 S 17 16.09 Fair CLR 26.5 20.8 71% 28 76.12 0.0
04 00:55 SE 15 16.09 Fair CLR 26.8 19.6 35.5 26.8 65% 28 76.12 0.0
04 00:35 SE 15 16.09 Fair CLR 27.1 18.7 60% 28 76.1 0.0
04 00:15 SE 19 16.09 Fair CLR 27.6 18.2 57% 29 76.1 0.0
03 23:55 SE 19 16.09 Fair CLR 28 19.2 59% 29 76.1 0.0
03 23:35 SE 19 G 26 16.09 Fair CLR 28.1 19.3 59% 29 76.1 0.0
03 23:15 SE 15 16.09 Fair CLR 28.4 19.2 57% 30 76.07 0.0
03 22:55 SE 15 16.09 Fair CLR 28.7 19.1 56% 30 76.1 0.0
03 22:35 SE 22 16.09 Fair CLR 28.9 19.2 56% 30 76.07 0.0
03 22:15 SE 15 16.09 Fair CLR 29.1 19.7 57% 31 76.05 0.0
03 21:55 SE 19 G 28 16.09 Fair CLR 29.4 20 57% 31 76.02 0.0
03 21:35 E 20 G 39 16.09 Fair CLR 30 19.7 54% 32 76 0.0
03 21:15 E 22 G 31 16.09 Fair CLR 31.1 19.2 49% 33 75.97 0.0
03 20:55 E 13 16.09 Fair CLR 31.7 18.7 46% 33 75.95 0.0
03 20:35 SE 13 16.09 Fair CLR 32.1 18.6 45% 33 75.92 0.0
03 20:15 SE 9 16.09 Fair CLR 32.2 18 43% 33 75.92 0.0
03 19:55 SE 9 16.09 Fair CLR 32.7 17.9 41% 34 75.9 0.0
03 19:35 SE 11 16.09 Fair CLR 33.9 17.9 39% 35 75.9 0.0
03 19:15 SE 19 16.09 Fair CLR 35.4 17.6 35% 36 75.9 0.0
03 18:55 SE 20 16.09 Fair CLR 35.5 17.1 37.9 33.8 33% 36 75.87 0.0
03 18:35 SE 22 16.09 Fair CLR 35.5 17.5 34% 36 75.87 0.0
03 18:15 SE 20 16.09 Partly Cloudy SCT085 SCT110 35.5 18 35% 37 75.87 0.0
03 17:55 SE 20 16.09 Overcast BKN085 OVC100 35.6 17.9 35% 37 75.84 0.0
03 17:35 SE 17 G 26 16.09 Mostly Cloudy BKN085 37.1 17.3 31% 38 75.84 0.0
03 17:15 S 11 16.09 Fair CLR 37.7 17 29% 39 75.87 0.0
03 16:55 SE 15 16.09 Fair CLR 37.4 16.6 29% 38 75.87 0.0
03 16:35 S 11 16.09 Fair CLR 37.1 16.1 29% 38 75.9 0.0
03 16:15 SE 17 16.09 Fair CLR 37.3 16.6 29% 38 75.9 0.0
03 15:55 Calm 16.09 Fair CLR 36.9 16.5 30% 38 75.92 0.0
03 15:35 S 7 16.09 Fair CLR 36.7 17.1 31% 38 75.95 0.0
03 15:15 SE 7 16.09 Fair CLR 36.5 17.6 33% 38 75.95 0.0
03 14:55 Calm 16.09 Fair CLR 36.3 18 34% 38 75.97 0.0
03 14:35 S 13 16.09 Fair CLR 36.7 18.4 34% 38 76 0.0
03 14:15 S 11 16.09 Fair CLR 35.4 18.4 37% 37 76.02 0.0
03 13:55 S 15 16.09 Fair CLR 35.3 18.6 37% 37 76.07 0.0
03 13:35 SE 17 G 30 16.09 Fair CLR 35.3 18.8 38% 37 76.07 0.0
03 13:15 S 19 16.09 Fair CLR 34.5 18.6 39% 36 76.1 0.0
03 12:55 S 9 16.09 Fair CLR 34 20 34 24.6 44% 36 76.15 0.0
03 12:35 S 15 16.09 Fair CLR 33.7 20.1 45% 36 76.17 0.0
03 12:15 S 15 16.09 Fair CLR 32.5 19.4 46% 34 76.17 0.0
03 11:55 SW 15 16.09 Fair CLR 31.7 20.3 51% 34 76.17 0.0
03 11:35 S 11 16.09 Fair CLR 30.9 21.2 56% 34 76.2 0.0
03 11:15 S 13 16.09 Fair CLR 30.3 21.6 60% 33 76.2 0.0
03 10:55 S 17 16.09 Fair CLR 29.6 21.8 63% 33 76.2 0.0
03 10:35 S 15 16.09 Fair CLR 29 22.5 68% 32 76.17 0.0
03 10:15 S 17 16.09 Partly Cloudy SCT015 28.1 22.6 72% 31 76.2 0.0
03 09:55 S 17 16.09 Mostly Cloudy BKN013 27.1 22.5 76% 30 76.2 0.0
03 09:35 S 15 16.09 Mostly Cloudy BKN013 26.6 22.8 80% 29 76.2 0.0
03 09:15 S 11 16.09 Overcast OVC013 25.5 22.6 84% 27 76.2 0.0
03 08:55 S 15 16.09 Overcast OVC011 25.2 22.8 87% 26 76.2 0.0
03 08:35 SE 11 16.09 Overcast OVC011 25 23 89% 26 76.2 0.0
03 08:15 S 9 16.09 Overcast OVC011 25 23 89% 26 76.17 0.0
03 07:55 SE 13 16.09 Overcast OVC011 24.7 22.8 89% 25 76.17 0.0
03 07:35 S 6 16.09 Overcast OVC011 24.7 22.7 89% 25 76.15 0.0
03 07:15 S 7 16.09 Mostly Cloudy BKN013 24.6 22.5 88% 25 76.15 0.0
03 06:55 S 9 16.09 Mostly Cloudy BKN013 24.7 22.5 27.7 24.5 88% 25 76.15 0.0
03 06:35 S 13 16.09 Overcast OVC013 24.8 22.5 87% 25 76.15 0.0
Date Time (cdt) Wind (kph) Vis. (km) Weather Sky Cond. Air Dwpt Max. Min. Relative Humidity Wind Chill (°C) Heat Index (°C) altimeter (cm) sea level (mb) 1 hr 3 hr 6 hr
6 hour
Temperature (ºC) Pressure Precipitation (cm)